Time;durP1;ratioP1;P1;durP2;ratioP2;P2;SDS_P1;SDS_P2;PMS_P1;PMS_P2;Temp;Humidity;BMP_temperature;BMP_pressure;BME280_temperature;BME280_humidity;BME280_pressure;Samples;Min_cycle;Max_cycle;Signal;HPM_P1;HPM_P2
2023/04/14 00:00:43;;;;;;;7.55;2.25;;;9.70;72.00;;;8.93;56.32;99833.78;5028121;28;20409;-86
2023/04/14 00:03:10;;;;;;;7.50;2.00;;;9.70;72.20;;;8.91;56.30;99833.19;5031710;28;20052;-89
2023/04/14 00:05:39;;;;;;;12.98;2.70;;;9.70;72.30;;;8.89;56.49;99829.94;5026849;28;20113;-85
2023/04/14 00:08:06;;;;;;;6.45;2.00;;;9.60;72.30;;;8.87;56.62;99831.97;5031176;28;20116;-89
2023/04/14 00:10:33;;;;;;;5.65;1.80;;;9.60;72.40;;;8.84;56.59;99832.44;5026888;28;20077;-87
2023/04/14 00:13:01;;;;;;;7.43;1.90;;;9.60;72.40;;;8.83;56.48;99840.59;5030174;28;20049;-87
2023/04/14 00:15:28;;;;;;;7.05;2.45;;;9.50;72.50;;;8.83;56.57;99832.63;5026366;28;20402;-85
2023/04/14 00:17:55;;;;;;;7.25;2.25;;;9.50;72.40;;;8.80;56.44;99841.03;5030014;28;20127;-86
2023/04/14 00:20:22;;;;;;;11.43;2.42;;;9.50;72.50;;;8.82;56.49;99844.28;5031292;28;20574;-87
2023/04/14 00:22:51;;;;;;;6.20;1.98;;;9.50;72.60;;;8.79;56.73;99858.84;5030756;28;20049;-86
2023/04/14 00:25:18;;;;;;;10.63;2.40;;;9.50;72.90;;;8.80;56.78;99851.69;5027653;28;20137;-86
2023/04/14 00:27:46;;;;;;;8.07;2.15;;;9.50;72.80;;;8.79;56.66;99850.88;5029738;28;20057;-84
2023/04/14 00:30:15;;;;;;;7.25;2.05;;;9.50;73.00;;;8.77;56.76;99845.75;5045548;28;20043;-85
2023/04/14 00:32:42;;;;;;;7.47;2.10;;;9.50;72.90;;;8.76;56.75;99862.72;5031557;28;20076;-86
2023/04/14 00:35:09;;;;;;;6.53;2.10;;;9.50;72.80;;;8.72;56.88;99858.88;5046170;28;20064;-86
2023/04/14 00:37:37;;;;;;;7.40;2.08;;;9.40;72.70;;;8.69;56.65;99850.53;5028944;28;20549;-85
2023/04/14 00:40:08;;;;;;;8.82;2.35;;;9.40;72.80;;;8.66;56.72;99856.25;5041955;28;20095;-84
2023/04/14 00:42:43;;;;;;;6.47;1.83;;;9.40;72.80;;;8.61;56.89;99859.56;5022181;28;20075;-86
2023/04/14 00:45:11;;;;;;;9.90;2.25;;;9.30;72.90;;;8.56;56.99;99859.38;5027687;28;20457;-84
2023/04/14 00:47:41;;;;;;;9.55;2.33;;;9.30;72.80;;;8.50;56.82;99874.34;5030598;28;20053;-86
2023/04/14 00:50:10;;;;;;;9.82;2.38;;;9.20;72.80;;;8.47;57.11;99868.63;5018098;28;20059;-86
2023/04/14 00:52:38;;;;;;;11.15;3.17;;;9.20;72.90;;;8.45;57.07;99868.84;5025712;28;20137;-85
2023/04/14 00:55:08;;;;;;;8.23;2.50;;;9.20;73.10;;;8.44;57.33;99874.34;5027523;28;20115;-86
2023/04/14 00:57:37;;;;;;;7.60;2.17;;;9.20;73.30;;;8.41;57.12;99866.81;5027632;28;20456;-84
2023/04/14 01:00:05;;;;;;;7.45;2.13;;;9.10;73.30;;;8.38;57.27;99875.22;5028988;28;20049;-86
2023/04/14 01:02:34;;;;;;;7.85;2.72;;;9.10;73.40;;;8.35;57.37;99881.75;5028237;28;20529;-86
2023/04/14 01:05:01;;;;;;;7.38;2.30;;;9.10;73.50;;;8.33;57.31;99882.97;5027238;28;20103;-86
2023/04/14 01:07:30;;;;;;;7.63;2.05;;;9.00;73.40;;;8.32;57.38;99876.03;5029488;28;20430;-85
2023/04/14 01:09:59;;;;;;;7.07;2.65;;;9.00;73.50;;;8.28;57.41;99886.25;5023751;28;20140;-85
2023/04/14 01:12:44;;;;;;;8.85;2.00;;;9.00;73.80;;;8.26;57.62;99888.31;5029320;28;20060;-84
2023/04/14 01:15:21;;;;;;;9.20;2.25;;;9.00;73.70;;;8.23;57.25;99886.06;5027110;28;20048;-88
2023/04/14 01:17:56;;;;;;;10.15;2.20;;;9.00;73.80;;;8.18;57.72;99886.69;5028373;28;20112;-85
2023/04/14 01:20:32;;;;;;;8.95;2.33;;;8.90;74.10;;;8.21;58.00;99885.47;5028705;28;20501;-85
2023/04/14 01:23:06;;;;;;;10.48;2.38;;;8.90;74.10;;;8.20;57.79;99889.16;5028574;28;20084;-85
2023/04/14 01:26:21;;;;;;;6.80;1.95;;;8.90;74.30;;;8.18;57.82;99892.00;5017725;28;20051;-86
2023/04/14 01:29:42;;;;;;;8.45;2.25;;;8.90;74.30;;;8.15;57.85;99900.41;4991089;28;20103;-85
2023/04/14 01:32:14;;;;;;;8.10;2.78;;;8.80;74.40;;;8.13;58.02;99897.13;5004610;28;20477;-85
2023/04/14 01:34:50;;;;;;;7.15;2.17;;;8.80;74.50;;;8.11;58.15;99901.03;5028390;28;20132;-86
2023/04/14 01:37:29;;;;;;;11.00;2.95;;;8.90;74.60;;;8.09;58.18;99893.25;5031997;28;20132;-85
2023/04/14 01:40:04;;;;;;;7.63;2.60;;;8.80;74.60;;;8.10;58.08;99896.72;5026648;28;20045;-85
2023/04/14 01:42:36;;;;;;;7.22;2.55;;;8.80;74.70;;;8.09;58.39;99900.41;5022506;28;20037;-85
2023/04/14 01:45:10;;;;;;;8.13;2.30;;;8.80;74.80;;;8.07;58.19;99895.31;5028057;28;20045;-87
2023/04/14 01:47:41;;;;;;;8.00;2.53;;;8.80;74.80;;;8.06;58.19;99900.84;5026209;28;20045;-87
2023/04/14 01:50:12;;;;;;;7.63;2.63;;;8.70;75.00;;;8.02;58.35;99895.13;5023825;28;20099;-88
2023/04/14 01:52:42;;;;;;;8.30;2.17;;;8.70;75.00;;;8.00;58.39;99903.31;5026285;28;20048;-88
2023/04/14 01:55:11;;;;;;;8.80;2.53;;;8.70;75.10;;;7.99;58.54;99899.00;5027347;28;20111;-85
2023/04/14 01:57:43;;;;;;;9.02;2.75;;;8.70;75.20;;;7.96;58.52;99901.28;5031585;28;20508;-86
2023/04/14 02:00:13;;;;;;;11.27;2.78;;;8.70;75.30;;;7.95;58.60;99904.94;5028275;28;20049;-87
2023/04/14 02:02:47;;;;;;;12.23;2.80;;;8.60;75.20;;;7.95;58.75;99896.97;5027389;28;20057;-84
2023/04/14 02:05:18;;;;;;;9.68;2.50;;;8.60;75.40;;;7.93;58.82;99896.38;5027410;28;20049;-85
2023/04/14 02:07:47;;;;;;;10.80;2.33;;;8.60;75.50;;;7.93;58.83;99899.03;5025243;28;20041;-87
2023/04/14 02:10:17;;;;;;;11.57;2.60;;;8.60;75.60;;;7.91;59.06;99896.59;5029393;28;20062;-88
2023/04/14 02:12:47;;;;;;;7.13;2.20;;;8.60;75.70;;;7.88;59.09;99893.53;5040948;28;20073;-84
2023/04/14 02:15:17;;;;;;;8.95;2.42;;;8.60;75.80;;;7.86;59.05;99895.59;5040212;28;20243;-84
2023/04/14 02:17:49;;;;;;;9.33;2.53;;;8.60;75.80;;;7.84;59.13;99897.63;5026858;28;20057;-85
2023/04/14 02:20:17;;;;;;;12.32;2.70;;;8.50;75.80;;;7.82;58.91;99905.81;5044431;28;20563;-85
2023/04/14 02:22:44;;;;;;;9.30;2.28;;;8.50;75.60;;;7.80;58.71;99901.72;5028690;28;20034;-85
2023/04/14 02:25:12;;;;;;;7.32;2.30;;;8.50;75.60;;;7.78;58.74;99901.09;5026384;28;20509;-85
2023/04/14 02:27:48;;;;;;;10.32;2.40;;;8.50;75.60;;;7.76;58.80;99909.28;5027087;28;20106;-85
2023/04/14 02:30:22;;;;;;;9.30;2.53;;;8.50;75.80;;;7.73;59.18;99907.84;5026890;28;20148;-85
2023/04/14 02:33:01;;;;;;;10.32;2.50;;;8.40;75.70;;;7.70;59.36;99908.25;5034934;28;20057;-84
2023/04/14 02:35:36;;;;;;;7.53;2.33;;;8.40;75.90;;;7.66;59.27;99907.06;5041190;28;20107;-85
2023/04/14 02:38:10;;;;;;;10.00;2.95;;;8.40;76.00;;;7.64;59.35;99911.72;5023090;28;20045;-86
2023/04/14 02:40:41;;;;;;;7.18;2.20;;;8.40;76.20;;;7.62;59.60;99907.66;5028554;28;20076;-87
2023/04/14 02:43:13;;;;;;;;;;;8.30;76.20;;;7.60;59.40;99912.34;5023867;28;20247;-85
2023/04/14 02:45:42;;;;;;;;;;;8.30;76.20;;;7.59;59.50;99913.38;5024820;28;20015;-86
2023/04/14 02:48:16;;;;;;;7.85;2.53;;;8.30;76.20;;;7.54;59.27;99914.00;5027361;28;19924;-84
2023/04/14 02:50:47;;;;;;;7.32;2.72;;;8.30;76.20;;;7.51;59.28;99914.38;5026833;28;20046;-85
2023/04/14 02:53:21;;;;;;;6.70;2.30;;;8.20;76.20;;;7.49;59.53;99911.13;5026079;28;20072;-83
2023/04/14 02:55:51;;;;;;;12.98;2.83;;;8.20;76.20;;;7.47;59.60;99910.53;5025733;28;20037;-87
2023/04/14 02:58:20;;;;;;;11.27;2.70;;;8.20;76.40;;;7.46;59.50;99916.84;5025198;28;20052;-85
2023/04/14 03:00:49;;;;;;;7.78;2.60;;;8.20;76.40;;;7.44;59.50;99916.25;5035652;28;20069;-86
2023/04/14 03:03:18;;;;;;;9.63;2.20;;;8.10;76.40;;;7.41;59.66;99911.34;5027133;28;20065;-85
2023/04/14 03:05:48;;;;;;;9.02;2.50;;;8.10;76.40;;;7.39;59.43;99906.25;5042043;28;20052;-85
2023/04/14 03:08:16;;;;;;;6.97;2.33;;;8.10;76.50;;;7.39;59.65;99916.03;5043438;28;20501;-86
2023/04/14 03:10:49;;;;;;;9.63;2.80;;;8.10;76.60;;;7.36;59.61;99911.13;5023937;28;20069;-88
2023/04/14 03:13:21;;;;;;;9.20;2.28;;;8.10;76.60;;;7.36;59.84;99913.78;5027018;28;20184;-84
2023/04/14 03:15:51;;;;;;;9.80;2.47;;;8.00;76.60;;;7.37;59.90;99910.09;5026036;28;20053;-86
2023/04/14 03:18:21;;;;;;;14.18;2.78;;;8.00;76.70;;;7.38;59.71;99914.41;5025784;28;20050;-85
2023/04/14 03:20:50;;;;;;;9.30;2.58;;;8.00;76.80;;;7.36;59.99;99919.91;5026988;28;20057;-83
2023/04/14 03:23:20;;;;;;;9.93;2.40;;;8.00;76.80;;;7.34;59.66;99911.34;5026030;28;20053;-83
2023/04/14 03:25:55;;;;;;;7.45;2.80;;;8.00;76.80;;;7.33;59.63;99919.50;5024630;28;20033;-87
2023/04/14 03:28:31;;;;;;;7.57;2.70;;;8.00;76.80;;;7.31;59.71;99919.69;5014542;28;20051;-85
2023/04/14 03:31:02;;;;;;;9.75;2.50;;;8.00;76.70;;;7.29;59.63;99912.97;5025649;28;20613;-87
2023/04/14 03:33:41;;;;;;;8.63;2.30;;;8.00;76.50;;;7.25;59.59;99911.75;5033325;28;20049;-86
2023/04/14 03:36:12;;;;;;;9.90;2.20;;;7.90;76.50;;;7.20;59.50;99910.50;5043499;28;20458;-85
2023/04/14 03:38:42;;;;;;;8.13;2.30;;;7.90;76.40;;;7.16;59.34;99919.88;5024929;28;20057;-84
2023/04/14 03:41:11;;;;;;;8.95;2.65;;;7.80;76.40;;;7.12;59.61;99918.66;5023922;28;20053;-85
2023/04/14 03:43:40;;;;;;;10.98;2.40;;;7.80;76.40;;;7.11;59.74;99921.50;5026280;28;20053;-87
2023/04/14 03:46:12;;;;;;;6.57;2.15;;;7.80;76.60;;;7.11;59.77;99924.97;5025968;28;20128;-84
2023/04/14 03:48:43;;;;;;;6.53;2.50;;;7.80;76.70;;;7.11;59.84;99924.97;5026338;28;20100;-87
2023/04/14 03:51:15;;;;;;;8.43;2.90;;;7.80;77.00;;;7.11;60.03;99932.13;5024057;28;20038;-84
2023/04/14 03:53:46;;;;;;;9.25;2.58;;;7.70;77.20;;;7.10;59.97;99936.63;5026070;28;20073;-85
2023/04/14 03:56:17;;;;;;;10.60;2.72;;;7.70;77.50;;;7.12;59.96;99939.06;5026869;28;20050;-85
2023/04/14 03:58:48;;;;;;;8.52;2.60;;;7.70;77.40;;;7.10;60.19;99936.63;5025933;28;20053;-86
2023/04/14 04:01:18;;;;;;;7.53;2.85;;;7.90;77.60;;;7.09;60.08;99945.59;5022975;28;20050;-85
2023/04/14 04:03:48;;;;;;;11.07;2.90;;;7.80;77.50;;;7.08;60.12;99938.66;5026497;28;20060;-86
2023/04/14 04:06:15;;;;;;;9.30;3.17;;;7.70;77.40;;;7.07;60.14;99944.97;5024872;28;20493;-87
2023/04/14 04:08:44;;;;;;;12.70;3.10;;;7.70;77.40;;;7.07;59.92;99937.00;5022342;28;20041;-84
2023/04/14 04:11:13;;;;;;;11.68;3.38;;;7.80;77.40;;;7.09;59.92;99942.94;5026424;28;20096;-87
2023/04/14 04:13:42;;;;;;;14.77;3.42;;;7.70;77.50;;;7.07;60.01;99942.31;5027059;28;20153;-86
2023/04/14 04:16:11;;;;;;;9.88;3.28;;;7.70;77.30;;;7.03;59.96;99945.56;5040371;28;20038;-85
2023/04/14 04:18:45;;;;;;;7.72;2.97;;;7.70;77.10;;;6.98;59.99;99946.19;5027630;28;20501;-85
2023/04/14 04:21:16;;;;;;;11.25;3.30;;;7.60;76.90;;;6.96;59.89;99942.91;5029688;28;20514;-86
2023/04/14 04:23:51;;;;;;;13.38;3.50;;;7.60;77.10;;;6.91;59.99;99951.47;5029953;28;20478;-84
2023/04/14 04:26:19;;;;;;;10.02;3.67;;;7.60;77.10;;;6.90;59.96;99949.00;5024094;28;20474;-85
2023/04/14 04:28:47;;;;;;;8.40;2.83;;;7.60;77.10;;;6.88;60.03;99957.19;5027879;28;20055;-88
2023/04/14 04:31:15;;;;;;;11.18;3.38;;;7.60;77.20;;;6.85;59.89;99959.41;5029250;28;20045;-85
2023/04/14 04:33:46;;;;;;;7.18;2.88;;;7.50;77.20;;;6.83;60.28;99964.06;5029704;28;20080;-89
2023/04/14 04:36:17;;;;;;;12.20;3.30;;;7.50;77.40;;;6.84;60.45;99963.06;5029537;28;20049;-85
2023/04/14 04:38:45;;;;;;;9.60;3.45;;;7.50;77.80;;;6.84;60.46;99955.94;5026966;28;20041;-87
2023/04/14 04:41:22;;;;;;;9.55;3.42;;;7.50;77.80;;;6.84;60.28;99963.88;5024393;28;20034;-88
2023/04/14 04:43:50;;;;;;;8.15;3.10;;;7.60;77.80;;;6.82;60.51;99952.66;5033252;28;20504;-86
2023/04/14 04:46:50;;;;;;;10.10;3.53;;;7.50;77.80;;;6.81;60.30;99953.66;5028765;28;20111;-84
2023/04/14 04:49:17;;;;;;;8.35;3.47;;;7.50;77.80;;;6.79;60.52;99955.72;5028666;28;20041;-91
2023/04/14 04:51:47;;;;;;;11.20;3.17;;;7.50;77.50;;;6.77;60.35;99954.28;5028122;28;20052;-87
2023/04/14 04:54:17;;;;;;;;;;;7.40;77.40;;;6.75;60.32;99953.66;5028248;28;20049;-88
2023/04/14 04:56:45;;;;;;;12.93;3.40;;;7.40;77.40;;;6.71;60.23;99954.03;5030400;28;20369;-87
2023/04/14 04:59:12;;;;;;;8.43;3.17;;;7.40;77.60;;;6.67;60.19;99963.41;5028189;28;20148;-87
2023/04/14 05:01:39;;;;;;;12.10;3.08;;;7.40;77.50;;;6.65;60.29;99957.50;5030032;28;20129;-86
2023/04/14 05:04:07;;;;;;;12.35;3.53;;;7.30;77.50;;;6.63;60.68;99951.56;5030104;28;20048;-86
2023/04/14 05:06:36;;;;;;;9.93;3.47;;;7.40;77.80;;;6.61;60.77;99958.91;5040326;28;20410;-83
2023/04/14 05:09:06;;;;;;;13.55;3.20;;;7.30;78.00;;;6.61;60.81;99961.56;5024921;28;20042;-80
2023/04/14 05:11:33;;;;;;;12.82;3.38;;;7.30;78.30;;;6.62;60.81;99960.53;5026172;28;20104;-78
2023/04/14 05:14:00;;;;;;;12.15;3.45;;;7.30;78.60;;;6.64;61.50;99957.72;5029150;28;20072;-79
2023/04/14 05:16:28;;;;;;;17.88;3.47;;;7.30;78.60;;;6.64;61.19;99955.88;5029398;28;20065;-79
2023/04/14 05:18:56;;;;;;;12.85;3.60;;;7.50;78.80;;;6.65;61.52;99954.03;5028135;28;20049;-80
2023/04/14 05:21:23;;;;;;;12.70;3.42;;;7.30;78.80;;;6.65;61.26;99960.16;5029627;28;20112;-80
2023/04/14 05:23:50;;;;;;;9.95;3.45;;;7.30;78.90;;;6.68;61.94;99972.16;5029832;28;20124;-81
2023/04/14 05:26:19;;;;;;;8.20;3.55;;;7.30;79.00;;;6.70;61.81;99964.84;5026425;28;20037;-79
2023/04/14 05:28:46;;;;;;;12.82;3.75;;;7.40;79.00;;;6.75;61.89;99965.06;5028730;28;20519;-81
2023/04/14 05:31:13;;;;;;;14.48;3.70;;;7.40;79.20;;;6.80;62.17;99967.13;5030145;28;20034;-78
2023/04/14 05:33:41;;;;;;;11.23;3.33;;;7.50;79.40;;;6.86;61.96;99976.94;5027050;28;20068;-79
2023/04/14 05:36:08;;;;;;;11.13;3.33;;;7.50;79.30;;;6.92;62.02;99970.81;5029742;28;20056;-77
2023/04/14 05:38:39;;;;;;;12.77;3.67;;;7.60;79.40;;;6.99;62.05;99981.47;5030105;28;20668;-79
2023/04/14 05:41:07;;;;;;;11.07;3.83;;;7.60;79.50;;;7.03;61.96;99980.03;5030219;28;20052;-81
2023/04/14 05:43:35;;;;;;;10.70;3.60;;;7.70;79.60;;;7.07;62.08;99984.72;5028870;28;20053;-81
2023/04/14 05:48:45;;;;;;;10.90;4.55;;;7.80;79.60;;;7.22;62.46;99977.44;5028478;28;20635;-83
2023/04/14 05:51:13;;;;;;;12.43;4.25;;;7.90;80.00;;;7.27;62.65;99973.34;5031333;28;20125;-80
2023/04/14 05:53:40;;;;;;;12.50;4.03;;;7.90;80.20;;;7.32;62.58;99976.22;5036738;28;20784;-80
2023/04/14 05:56:10;;;;;;;17.45;4.45;;;8.00;80.20;;;7.37;62.43;99976.41;5040689;28;20046;-79
2023/04/14 05:58:38;;;;;;;15.15;3.67;;;8.00;79.80;;;7.41;62.29;99967.84;5027664;28;20037;-77
2023/04/14 06:01:06;;;;;;;12.55;4.38;;;8.20;79.90;;;7.47;62.75;99975.03;5033772;28;20180;-77
2023/04/14 06:03:33;;;;;;;13.13;4.00;;;8.10;80.60;;;7.56;62.68;99977.47;5029846;28;20046;-77
2023/04/14 06:06:00;;;;;;;11.10;4.20;;;8.10;80.60;;;7.60;62.57;99974.19;5040265;28;20488;-78
2023/04/14 06:08:29;;;;;;;10.93;4.50;;;8.20;80.50;;;7.63;62.69;99968.50;5034864;28;20087;-78
2023/04/14 06:10:56;;;;;;;13.38;4.40;;;8.20;80.30;;;7.68;62.44;99970.53;5029418;28;20357;-79
2023/04/14 06:13:23;;;;;;;15.02;4.88;;;8.30;80.40;;;7.75;62.79;99961.53;5032111;28;20045;-78
2023/04/14 06:15:52;;;;;;;12.90;4.35;;;8.40;80.40;;;7.80;62.62;99965.41;5036318;28;20417;-77
2023/04/14 06:18:19;;;;;;;11.93;4.70;;;8.40;80.00;;;7.85;62.41;99960.31;5037155;28;20112;-79
2023/04/14 06:20:46;;;;;;;11.32;5.15;;;8.50;80.20;;;7.91;62.40;99960.31;5035977;28;20519;-79
2023/04/14 06:23:14;;;;;;;12.48;4.70;;;8.60;80.00;;;7.97;62.64;99966.63;5029351;28;20075;-78
2023/04/14 06:25:41;;;;;;;13.80;4.10;;;8.60;80.00;;;8.01;62.99;99957.25;5029728;28;20579;-81
2023/04/14 06:28:08;;;;;;;9.70;4.00;;;8.60;80.40;;;8.08;62.98;99958.03;5034655;28;20478;-79
2023/04/14 06:30:35;;;;;;;10.65;4.65;;;8.70;80.60;;;8.15;63.49;99948.22;5029221;28;20045;-77
2023/04/14 06:33:04;;;;;;;14.82;4.88;;;8.80;81.10;;;8.25;63.66;99951.25;5026892;28;20029;-80
2023/04/14 06:35:33;;;;;;;17.52;4.97;;;8.90;81.20;;;8.34;64.03;99954.47;5032246;28;20209;-78
2023/04/14 06:38:01;;;;;;;15.48;4.55;;;9.00;81.60;;;8.46;63.71;99947.53;5028674;28;20383;-78
2023/04/14 06:40:28;;;;;;;11.20;4.60;;;9.10;81.20;;;8.64;63.64;99946.03;5026264;28;20652;-78
2023/04/14 06:42:55;;;;;;;12.02;4.63;;;9.30;81.20;;;8.80;62.69;99948.22;5027871;28;20065;-78
2023/04/14 06:45:22;;;;;;;12.75;5.05;;;9.50;80.20;;;8.94;62.32;99941.78;5028833;28;20490;-78
2023/04/14 06:47:50;;;;;;;14.82;4.80;;;9.60;79.60;;;9.07;61.48;99940.88;5030147;28;20037;-81
2023/04/14 06:50:19;;;;;;;13.40;4.25;;;9.80;78.90;;;9.19;60.70;99941.03;5028039;28;20163;-81
2023/04/14 06:52:46;;;;;;;12.18;4.00;;;9.90;78.10;;;9.35;60.68;99945.00;5027553;28;20550;-80
2023/04/14 06:55:14;;;;;;;15.40;4.82;;;10.10;78.00;;;9.47;59.72;99928.13;5015868;28;20123;-79
2023/04/14 06:57:41;;;;;;;13.65;4.05;;;10.20;76.80;;;9.58;59.50;99931.94;5032197;28;20061;-82
2023/04/14 07:00:10;;;;;;;12.60;4.38;;;10.30;76.70;;;9.70;59.48;99932.81;5028345;28;20042;-81
2023/04/14 07:02:37;;;;;;;10.30;3.60;;;10.40;76.20;;;9.83;59.08;99936.41;5028301;28;20046;-79
2023/04/14 07:05:06;;;;;;;11.13;3.50;;;10.70;76.00;;;9.97;59.24;99935.25;5032445;28;20065;-79
2023/04/14 07:07:38;;;;;;;10.48;3.30;;;10.70;76.30;;;10.10;58.24;99936.94;5032532;28;20037;-79
2023/04/14 07:10:07;;;;;;;13.23;4.20;;;10.90;74.80;;;10.21;57.62;99931.72;5028291;28;20041;-78
2023/04/14 07:12:34;;;;;;;11.27;3.25;;;11.00;74.00;;;10.30;57.46;99924.28;5029935;28;20057;-78
2023/04/14 07:15:01;;;;;;;14.32;4.30;;;11.10;74.10;;;10.45;57.49;99931.91;5013714;28;20136;-81
2023/04/14 07:17:29;;;;;;;9.23;3.83;;;11.20;73.90;;;10.57;57.31;99932.75;5024513;28;20053;-79
2023/04/14 07:19:57;;;;;;;11.52;3.90;;;11.30;73.70;;;10.68;56.84;99931.19;5027763;28;20069;-80
2023/04/14 07:22:25;;;;;;;12.05;3.63;;;11.40;73.20;;;10.76;56.99;99918.34;5014536;28;20046;-79
2023/04/14 07:24:53;;;;;;;10.05;3.50;;;11.60;73.30;;;10.93;56.19;99920.38;5028555;28;20048;-78
2023/04/14 07:27:21;;;;;;;11.05;3.60;;;11.70;72.60;;;11.02;55.49;99927.03;5013411;28;20041;-79
2023/04/14 07:29:48;;;;;;;11.30;3.53;;;11.80;71.70;;;11.18;55.92;99917.56;5032593;28;20103;-81
2023/04/14 07:32:15;;;;;;;14.65;3.53;;;11.90;71.90;;;11.21;54.91;99909.91;5032087;28;20412;-79
2023/04/14 07:34:42;;;;;;;13.40;3.75;;;12.00;70.80;;;11.29;55.37;99909.56;5034138;28;20045;-80
2023/04/14 07:37:10;;;;;;;12.40;3.63;;;12.10;71.20;;;11.41;54.39;99908.78;5026892;28;20042;-79
2023/04/14 07:39:37;;;;;;;11.32;3.28;;;12.20;70.30;;;11.51;54.11;99917.84;5022751;28;20049;-80
2023/04/14 07:42:06;;;;;;;10.20;3.42;;;12.30;70.00;;;11.65;54.65;99906.94;5029962;28;20049;-79
2023/04/14 07:44:34;;;;;;;10.23;3.25;;;12.50;70.40;;;11.72;53.09;99908.47;5011500;28;20462;-78
2023/04/14 07:47:02;;;;;;;11.23;3.65;;;12.60;68.30;;;11.78;52.63;99898.69;5028812;28;20053;-78
2023/04/14 07:49:30;;;;;;;12.77;3.70;;;12.60;67.90;;;11.86;52.93;99901.06;5031776;28;20179;-78
2023/04/14 07:51:58;;;;;;;12.82;3.78;;;12.70;68.10;;;11.91;53.09;99909.19;5029533;28;20037;-78
2023/04/14 07:54:25;;;;;;;10.80;3.58;;;12.80;68.30;;;12.02;53.42;99897.66;5030319;28;20045;-77
2023/04/14 07:56:52;;;;;;;15.02;4.07;;;12.90;68.50;;;12.13;52.74;99898.69;5028159;28;20136;-80
2023/04/14 07:59:21;;;;;;;13.80;3.78;;;13.00;67.80;;;12.16;52.99;99903.56;5030883;28;20148;-79
2023/04/14 08:01:48;;;;;;;13.65;3.90;;;13.00;67.90;;;12.20;52.47;99910.09;5033774;28;20460;-81
2023/04/14 08:04:15;;;;;;;15.77;3.72;;;13.10;67.90;;;12.30;52.03;99910.28;5029798;28;20129;-79
2023/04/14 08:06:42;;;;;;;12.80;3.47;;;13.10;66.80;;;12.33;52.07;99909.78;5031058;28;20119;-78
2023/04/14 08:09:11;;;;;;;10.10;3.33;;;13.20;67.20;;;12.44;52.86;99910.00;5032339;28;20048;-80
2023/04/14 08:11:38;;;;;;;10.80;3.03;;;13.30;68.00;;;12.54;53.18;99915.56;5034363;28;20095;-81
2023/04/14 08:14:05;;;;;;;10.07;3.20;;;13.40;68.30;;;12.62;51.72;99907.16;5031388;28;20124;-79
2023/04/14 08:16:35;;;;;;;11.07;3.40;;;13.50;65.90;;;12.72;52.12;99906.53;5013321;28;20486;-78
2023/04/14 08:19:03;;;;;;;11.57;3.00;;;13.50;66.60;;;12.79;51.91;99905.34;5034386;28;20037;-80
2023/04/14 08:21:30;;;;;;;9.68;2.83;;;13.60;66.40;;;12.88;51.72;99911.13;5027636;28;20124;-79
2023/04/14 08:23:57;;;;;;;12.57;3.25;;;13.70;66.50;;;12.90;51.20;99903.66;5038336;28;20116;-78
2023/04/14 08:26:26;;;;;;;10.55;3.05;;;13.80;66.10;;;12.93;51.93;99905.84;5035552;28;20639;-79
2023/04/14 08:28:53;;;;;;;16.02;3.42;;;13.80;66.60;;;12.93;48.63;99902.38;5032587;28;20103;-78
2023/04/14 08:31:23;;;;;;;12.30;3.42;;;13.70;62.60;;;12.77;50.30;99898.59;5033067;28;20132;-79
2023/04/14 08:33:52;;;;;;;14.00;3.03;;;13.60;64.40;;;12.83;49.89;99895.81;5034131;28;20099;-80
2023/04/14 08:36:20;;;;;;;11.55;2.90;;;13.70;64.10;;;12.91;50.35;99902.63;5042901;28;20493;-79
2023/04/14 08:38:47;;;;;;;12.52;2.85;;;13.70;64.20;;;12.97;48.73;99898.16;5030447;28;20069;-78
2023/04/14 08:41:18;;;;;;;13.52;3.08;;;13.80;62.40;;;12.97;47.20;99892.81;5030937;28;20120;-79
2023/04/14 08:43:46;;;;;;;14.85;3.58;;;13.80;60.40;;;12.95;48.70;99900.28;5030251;28;20048;-80
2023/04/14 08:46:14;;;;;;;14.50;3.33;;;13.80;62.80;;;12.96;49.20;99896.53;5027099;28;20148;-79
2023/04/14 08:48:45;;;;;;;14.18;3.10;;;13.80;63.20;;;12.97;48.66;99898.16;5030006;28;20124;-80
2023/04/14 08:51:22;;;;;;;11.30;3.30;;;13.80;62.20;;;13.02;48.50;99901.72;5027658;28;20527;-78
2023/04/14 08:53:51;;;;;;;10.65;2.20;;;13.90;61.90;;;13.04;47.79;99888.94;5032267;28;20048;-79
2023/04/14 08:56:20;;;;;;;10.55;2.75;;;13.90;61.20;;;13.08;47.17;99890.09;5031237;28;20117;-79
2023/04/14 08:58:49;;;;;;;7.53;2.33;;;13.90;60.20;;;13.12;46.98;99895.75;5028920;28;20116;-78
2023/04/14 09:01:16;;;;;;;10.02;2.13;;;14.00;60.30;;;13.11;46.39;99888.78;5026740;28;20148;-77
2023/04/14 09:03:44;;;;;;;7.32;2.42;;;13.90;59.70;;;13.08;45.31;99890.09;5029094;28;20100;-76
2023/04/14 09:06:12;;;;;;;12.23;2.80;;;13.90;57.90;;;13.11;46.31;99888.78;5027612;28;20399;-76
2023/04/14 09:08:40;;;;;;;11.30;2.55;;;13.90;59.30;;;13.13;47.86;99882.13;5005238;28;20041;-77
2023/04/14 09:11:09;;;;;;;10.95;2.42;;;14.00;61.20;;;13.24;47.85;99883.13;5021766;28;20590;-78
2023/04/14 09:13:37;;;;;;;11.02;3.05;;;14.10;61.00;;;13.26;46.09;99889.06;5030529;28;20053;-76
2023/04/14 09:16:07;;;;;;;14.55;3.15;;;14.10;58.80;;;13.26;47.29;99889.06;5031687;28;20042;-80
2023/04/14 09:18:34;;;;;;;8.10;2.50;;;14.10;60.30;;;13.23;46.82;99878.84;5028766;28;20043;-77
2023/04/14 09:21:02;;;;;;;12.82;2.60;;;14.10;59.50;;;13.27;45.93;99871.13;5041590;28;20041;-78
2023/04/14 09:23:30;;;;;;;11.90;2.65;;;14.10;58.20;;;13.20;46.10;99881.16;5032690;28;20054;-77
2023/04/14 09:26:00;;;;;;;10.48;2.67;;;14.10;58.70;;;13.16;47.06;99886.19;5016136;28;20037;-79
2023/04/14 09:28:27;;;;;;;8.40;2.13;;;14.00;59.80;;;13.09;44.70;99874.81;5040129;28;20061;-77
2023/04/14 09:30:55;;;;;;;9.82;2.42;;;13.90;57.00;;;13.09;44.84;99869.47;5029818;28;20133;-76
2023/04/14 09:33:23;;;;;;;11.82;2.55;;;13.90;57.10;;;13.08;45.81;99874.00;5027016;28;20124;-77
2023/04/14 09:35:52;;;;;;;8.25;2.25;;;13.90;58.10;;;13.08;45.90;99873.22;5044375;28;20045;-76
2023/04/14 09:38:33;;;;;;;9.20;2.13;;;13.90;58.10;;;13.18;46.44;99864.53;5036639;28;20039;-76
2023/04/14 09:41:02;;;;;;;11.02;2.60;;;14.00;58.90;;;13.21;44.97;99861.34;5037286;28;20048;-77
2023/04/14 09:43:30;;;;;;;6.57;2.10;;;14.00;56.90;;;13.18;45.30;99857.31;5030886;28;20055;-81
2023/04/14 09:46:03;;;;;;;8.00;2.28;;;14.00;57.50;;;13.13;45.73;99868.75;5017485;28;20448;-77
2023/04/14 09:48:31;;;;;;;7.13;2.03;;;14.00;58.40;;;13.15;46.31;99871.16;5041503;28;20133;-76
2023/04/14 09:51:01;;;;;;;9.82;2.25;;;14.00;58.40;;;13.07;45.18;99863.53;5041952;28;20128;-78
2023/04/14 09:53:30;;;;;;;9.27;2.10;;;14.00;57.40;;;13.04;45.66;99877.41;5033873;28;20856;-78
2023/04/14 09:56:01;;;;;;;9.02;2.10;;;13.90;58.20;;;13.03;46.59;99875.78;5036342;28;20041;-78
2023/04/14 09:58:32;;;;;;;10.10;2.28;;;13.90;59.80;;;13.11;46.65;99872.72;5029216;28;20099;-79
2023/04/14 10:00:59;;;;;;;8.63;2.22;;;14.00;59.30;;;13.19;46.67;99858.13;5042186;28;20048;-79
2023/04/14 10:03:36;;;;;;;8.20;2.42;;;14.00;60.30;;;13.35;47.39;99865.34;5031739;28;20068;-75
2023/04/14 10:06:06;;;;;;;12.18;2.42;;;14.10;60.60;;;13.38;44.88;99857.66;5030341;28;20149;-76
2023/04/14 10:08:39;;;;;;;9.00;2.20;;;14.20;56.90;;;13.38;45.08;99862.19;5038011;28;20055;-77
2023/04/14 10:11:18;;;;;;;11.95;2.55;;;14.30;57.30;;;13.37;44.10;99860.56;5036354;28;20292;-79
2023/04/14 10:13:49;;;;;;;11.35;2.53;;;14.20;56.10;;;13.30;43.75;99859.94;5045862;28;20075;-79
2023/04/14 10:16:17;;;;;;;10.27;2.57;;;14.20;55.40;;;13.26;43.97;99856.91;5035496;28;20497;-76
2023/04/14 10:18:44;;;;;;;10.60;2.58;;;14.10;55.70;;;13.22;43.46;99844.25;5039427;28;20826;-77
2023/04/14 10:21:12;;;;;;;10.48;2.40;;;14.10;54.90;;;13.30;44.16;99842.00;5029325;28;20498;-78
2023/04/14 10:23:41;;;;;;;10.20;2.28;;;14.10;55.70;;;13.39;43.07;99827.13;5028955;28;20579;-78
2023/04/14 10:26:10;;;;;;;7.03;2.05;;;14.20;54.90;;;13.41;43.98;99829.56;5034425;28;20048;-77
2023/04/14 10:28:40;;;;;;;9.52;2.15;;;14.20;55.30;;;13.42;43.58;99825.00;5039786;28;20046;-76
2023/04/14 10:31:14;;;;;;;11.35;2.17;;;14.30;55.10;;;13.44;43.56;99828.25;5039345;28;20052;-77
2023/04/14 10:33:42;;;;;;;7.63;2.03;;;14.30;55.10;;;13.49;44.17;99833.69;5030045;28;20053;-79
2023/04/14 10:36:09;;;;;;;9.70;2.35;;;14.30;55.50;;;13.57;45.14;99825.25;5035288;28;20041;-79
2023/04/14 10:38:39;;;;;;;8.80;2.17;;;14.40;57.30;;;13.57;43.46;99827.94;5037950;28;20037;-77